sensor_id;sensor_type;location;lat;lon;timestamp;pressure;altitude;pressure_sealevel;temperature;humidity
11124;BME280;5616;42.692;23.312;2023-02-04T00:01:30;94949.78;;;3.47;80.24
11124;BME280;5616;42.692;23.312;2023-02-04T00:03:58;94945.38;;;3.39;80.77
11124;BME280;5616;42.692;23.312;2023-02-04T00:06:25;94942.69;;;3.41;81.04
11124;BME280;5616;42.692;23.312;2023-02-04T00:08:52;94943.34;;;3.43;80.96
11124;BME280;5616;42.692;23.312;2023-02-04T00:11:20;94937.03;;;3.37;80.96
11124;BME280;5616;42.692;23.312;2023-02-04T00:13:47;94926.84;;;3.37;81.06
11124;BME280;5616;42.692;23.312;2023-02-04T00:16:14;94924.88;;;3.31;82.36
11124;BME280;5616;42.692;23.312;2023-02-04T00:18:41;94925.38;;;2.98;82.92
11124;BME280;5616;42.692;23.312;2023-02-04T00:21:08;94918.94;;;2.94;84.06
11124;BME280;5616;42.692;23.312;2023-02-04T00:23:34;94926.44;;;3.05;83.26
11124;BME280;5616;42.692;23.312;2023-02-04T00:26:01;94927.91;;;3.07;82.82
11124;BME280;5616;42.692;23.312;2023-02-04T00:28:30;94919.31;;;2.99;83.71
11124;BME280;5616;42.692;23.312;2023-02-04T00:30:56;94897.28;;;3.07;83.23
11124;BME280;5616;42.692;23.312;2023-02-04T00:33:23;94907.97;;;2.84;83.79
11124;BME280;5616;42.692;23.312;2023-02-04T00:35:50;94915.59;;;2.93;84.37
11124;BME280;5616;42.692;23.312;2023-02-04T00:38:19;94913.81;;;3.03;84.34
11124;BME280;5616;42.692;23.312;2023-02-04T00:40:47;94896.50;;;3.07;83.92
11124;BME280;5616;42.692;23.312;2023-02-04T00:43:17;94873.56;;;2.97;83.29
11124;BME280;5616;42.692;23.312;2023-02-04T00:45:45;94896.09;;;3.02;84.10
11124;BME280;5616;42.692;23.312;2023-02-04T00:48:12;94893.66;;;3.10;83.16
11124;BME280;5616;42.692;23.312;2023-02-04T00:50:38;94901.31;;;3.10;83.51
11124;BME280;5616;42.692;23.312;2023-02-04T00:53:05;94893.34;;;2.86;83.75
11124;BME280;5616;42.692;23.312;2023-02-04T00:55:32;94891.00;;;3.02;83.06
11124;BME280;5616;42.692;23.312;2023-02-04T00:57:59;94885.34;;;3.08;83.06
11124;BME280;5616;42.692;23.312;2023-02-04T01:00:26;94879.38;;;3.17;83.10
11124;BME280;5616;42.692;23.312;2023-02-04T01:02:54;94877.66;;;3.18;82.18
11124;BME280;5616;42.692;23.312;2023-02-04T01:05:21;94868.09;;;3.20;81.05
11124;BME280;5616;42.692;23.312;2023-02-04T01:07:48;94869.63;;;3.13;81.21
11124;BME280;5616;42.692;23.312;2023-02-04T01:10:15;94846.41;;;3.06;81.35
11124;BME280;5616;42.692;23.312;2023-02-04T01:12:42;94861.72;;;3.06;81.77
11124;BME280;5616;42.692;23.312;2023-02-04T01:15:09;94856.88;;;3.13;82.26
11124;BME280;5616;42.692;23.312;2023-02-04T01:17:36;94860.31;;;3.21;81.56
11124;BME280;5616;42.692;23.312;2023-02-04T01:20:05;94846.03;;;3.28;81.34
11124;BME280;5616;42.692;23.312;2023-02-04T01:22:32;94835.28;;;3.34;79.75
11124;BME280;5616;42.692;23.312;2023-02-04T01:24:59;94838.41;;;3.28;80.75
11124;BME280;5616;42.692;23.312;2023-02-04T01:27:39;94835.41;;;3.33;80.14
11124;BME280;5616;42.692;23.312;2023-02-04T01:30:07;94830.41;;;3.41;80.29
11124;BME280;5616;42.692;23.312;2023-02-04T01:32:34;94829.66;;;3.48;80.13
11124;BME280;5616;42.692;23.312;2023-02-04T01:35:01;94839.41;;;3.35;80.94
11124;BME280;5616;42.692;23.312;2023-02-04T01:37:29;94833.19;;;3.47;80.23
11124;BME280;5616;42.692;23.312;2023-02-04T01:39:56;94819.47;;;3.48;79.38
11124;BME280;5616;42.692;23.312;2023-02-04T01:42:23;94823.91;;;3.46;79.39
11124;BME280;5616;42.692;23.312;2023-02-04T01:44:50;94808.22;;;3.24;80.28
11124;BME280;5616;42.692;23.312;2023-02-04T01:47:17;94816.19;;;3.11;81.09
11124;BME280;5616;42.692;23.312;2023-02-04T01:49:45;94808.91;;;3.16;81.98
11124;BME280;5616;42.692;23.312;2023-02-04T01:52:15;94803.41;;;3.21;81.77
11124;BME280;5616;42.692;23.312;2023-02-04T01:54:44;94813.16;;;3.25;80.59
11124;BME280;5616;42.692;23.312;2023-02-04T01:57:14;94803.84;;;3.34;82.08
11124;BME280;5616;42.692;23.312;2023-02-04T01:59:42;94803.31;;;3.30;80.29
11124;BME280;5616;42.692;23.312;2023-02-04T02:02:36;94796.84;;;3.36;81.34
11124;BME280;5616;42.692;23.312;2023-02-04T02:05:03;94802.03;;;3.26;80.94
11124;BME280;5616;42.692;23.312;2023-02-04T02:07:31;94806.41;;;3.06;82.03
11124;BME280;5616;42.692;23.312;2023-02-04T02:09:59;94803.25;;;3.22;82.86
11124;BME280;5616;42.692;23.312;2023-02-04T02:12:28;94795.03;;;3.28;82.64
11124;BME280;5616;42.692;23.312;2023-02-04T02:14:54;94796.03;;;3.18;82.58
11124;BME280;5616;42.692;23.312;2023-02-04T02:17:21;94789.84;;;3.20;82.38
11124;BME280;5616;42.692;23.312;2023-02-04T02:19:49;94779.38;;;3.14;81.40
11124;BME280;5616;42.692;23.312;2023-02-04T02:22:21;94774.50;;;3.02;82.30
11124;BME280;5616;42.692;23.312;2023-02-04T02:24:51;94784.78;;;2.83;84.80
11124;BME280;5616;42.692;23.312;2023-02-04T02:27:18;94784.00;;;3.00;83.33
11124;BME280;5616;42.692;23.312;2023-02-04T02:29:45;94767.63;;;3.03;83.44
11124;BME280;5616;42.692;23.312;2023-02-04T02:32:13;94750.22;;;2.98;82.55
11124;BME280;5616;42.692;23.312;2023-02-04T02:34:41;94739.19;;;2.98;82.52
11124;BME280;5616;42.692;23.312;2023-02-04T02:37:08;94734.78;;;3.00;82.91
11124;BME280;5616;42.692;23.312;2023-02-04T02:39:36;94721.22;;;2.99;82.99
11124;BME280;5616;42.692;23.312;2023-02-04T02:42:05;94722.91;;;3.08;82.45
11124;BME280;5616;42.692;23.312;2023-02-04T02:44:32;94708.47;;;3.17;82.80
11124;BME280;5616;42.692;23.312;2023-02-04T02:46:59;94710.31;;;3.07;82.65
11124;BME280;5616;42.692;23.312;2023-02-04T02:49:30;94720.78;;;3.04;83.35
11124;BME280;5616;42.692;23.312;2023-02-04T02:51:59;94712.69;;;3.08;81.69
11124;BME280;5616;42.692;23.312;2023-02-04T02:54:28;94693.63;;;2.95;82.77
11124;BME280;5616;42.692;23.312;2023-02-04T02:56:59;94698.47;;;3.06;82.70
11124;BME280;5616;42.692;23.312;2023-02-04T02:59:27;94695.38;;;3.12;82.04
11124;BME280;5616;42.692;23.312;2023-02-04T03:01:56;94708.13;;;3.12;81.55
11124;BME280;5616;42.692;23.312;2023-02-04T03:04:27;94704.09;;;3.09;81.88
11124;BME280;5616;42.692;23.312;2023-02-04T03:06:55;94696.38;;;2.84;81.86
11124;BME280;5616;42.692;23.312;2023-02-04T03:09:24;94698.16;;;2.74;83.20
11124;BME280;5616;42.692;23.312;2023-02-04T03:11:52;94700.81;;;2.82;84.58
11124;BME280;5616;42.692;23.312;2023-02-04T03:14:20;94708.09;;;2.94;84.07
11124;BME280;5616;42.692;23.312;2023-02-04T03:16:51;94702.56;;;2.81;83.20
11124;BME280;5616;42.692;23.312;2023-02-04T03:19:19;94707.78;;;2.80;83.82
11124;BME280;5616;42.692;23.312;2023-02-04T03:21:48;94703.13;;;2.75;84.02
11124;BME280;5616;42.692;23.312;2023-02-04T03:24:15;94676.81;;;2.75;83.61
11124;BME280;5616;42.692;23.312;2023-02-04T03:26:43;94694.38;;;2.78;83.64
11124;BME280;5616;42.692;23.312;2023-02-04T03:29:10;94702.31;;;2.75;84.62
11124;BME280;5616;42.692;23.312;2023-02-04T03:31:37;94694.75;;;2.83;83.30
11124;BME280;5616;42.692;23.312;2023-02-04T03:34:06;94694.19;;;2.89;82.17
11124;BME280;5616;42.692;23.312;2023-02-04T03:36:33;94700.38;;;2.86;82.43
11124;BME280;5616;42.692;23.312;2023-02-04T03:39:01;94697.53;;;2.89;83.54
11124;BME280;5616;42.692;23.312;2023-02-04T03:41:27;94705.50;;;3.04;82.40
11124;BME280;5616;42.692;23.312;2023-02-04T03:43:54;94700.25;;;3.05;82.00
11124;BME280;5616;42.692;23.312;2023-02-04T03:46:21;94682.31;;;3.15;80.95
11124;BME280;5616;42.692;23.312;2023-02-04T03:48:50;94667.97;;;3.14;81.44
11124;BME280;5616;42.692;23.312;2023-02-04T03:51:18;94669.28;;;3.18;81.13
11124;BME280;5616;42.692;23.312;2023-02-04T03:53:45;94670.28;;;3.25;80.30
11124;BME280;5616;42.692;23.312;2023-02-04T03:56:12;94669.44;;;3.34;81.06
11124;BME280;5616;42.692;23.312;2023-02-04T03:58:38;94650.88;;;3.32;80.83
11124;BME280;5616;42.692;23.312;2023-02-04T04:01:05;94656.53;;;3.18;80.20
11124;BME280;5616;42.692;23.312;2023-02-04T04:03:32;94645.00;;;3.14;81.05
11124;BME280;5616;42.692;23.312;2023-02-04T04:05:59;94635.69;;;3.05;81.83
11124;BME280;5616;42.692;23.312;2023-02-04T04:08:27;94643.06;;;3.08;81.83
11124;BME280;5616;42.692;23.312;2023-02-04T04:10:54;94629.84;;;3.13;80.88
11124;BME280;5616;42.692;23.312;2023-02-04T04:13:20;94630.59;;;3.05;82.03
11124;BME280;5616;42.692;23.312;2023-02-04T04:15:47;94618.19;;;3.10;82.30
11124;BME280;5616;42.692;23.312;2023-02-04T04:18:14;94620.16;;;2.98;82.24
11124;BME280;5616;42.692;23.312;2023-02-04T04:20:41;94619.22;;;3.17;81.48
11124;BME280;5616;42.692;23.312;2023-02-04T04:23:07;94616.38;;;3.20;81.25
11124;BME280;5616;42.692;23.312;2023-02-04T04:25:36;94616.56;;;3.27;81.48
11124;BME280;5616;42.692;23.312;2023-02-04T04:28:03;94613.59;;;3.14;82.38
11124;BME280;5616;42.692;23.312;2023-02-04T04:30:30;94626.56;;;3.20;82.64
11124;BME280;5616;42.692;23.312;2023-02-04T04:32:56;94639.41;;;3.11;82.08
11124;BME280;5616;42.692;23.312;2023-02-04T04:35:23;94639.03;;;3.23;81.63
11124;BME280;5616;42.692;23.312;2023-02-04T04:37:50;94641.50;;;3.33;82.40
11124;BME280;5616;42.692;23.312;2023-02-04T04:40:17;94638.72;;;3.44;82.01
11124;BME280;5616;42.692;23.312;2023-02-04T04:42:45;94632.56;;;3.54;82.40
11124;BME280;5616;42.692;23.312;2023-02-04T04:45:12;94645.16;;;3.56;81.41
11124;BME280;5616;42.692;23.312;2023-02-04T04:47:39;94638.38;;;3.64;80.46
11124;BME280;5616;42.692;23.312;2023-02-04T04:50:07;94647.31;;;3.60;81.64
11124;BME280;5616;42.692;23.312;2023-02-04T04:52:34;94645.03;;;3.57;80.63
11124;BME280;5616;42.692;23.312;2023-02-04T04:55:00;94646.94;;;3.55;81.07
11124;BME280;5616;42.692;23.312;2023-02-04T04:57:27;94650.28;;;3.56;81.10
11124;BME280;5616;42.692;23.312;2023-02-04T04:59:55;94638.38;;;3.64;80.94
11124;BME280;5616;42.692;23.312;2023-02-04T05:02:22;94644.94;;;3.67;81.33
11124;BME280;5616;42.692;23.312;2023-02-04T05:04:49;94646.91;;;3.73;80.74
11124;BME280;5616;42.692;23.312;2023-02-04T05:07:16;94645.94;;;4.00;80.14
11124;BME280;5616;42.692;23.312;2023-02-04T05:09:43;94638.03;;;4.11;80.12
11124;BME280;5616;42.692;23.312;2023-02-04T05:12:10;94642.84;;;4.22;79.89
11124;BME280;5616;42.692;23.312;2023-02-04T05:14:36;94642.59;;;4.33;80.64
11124;BME280;5616;42.692;23.312;2023-02-04T05:17:05;94664.97;;;4.39;80.12
11124;BME280;5616;42.692;23.312;2023-02-04T05:19:31;94669.47;;;4.45;80.14
11124;BME280;5616;42.692;23.312;2023-02-04T05:21:58;94666.16;;;4.53;79.43
11124;BME280;5616;42.692;23.312;2023-02-04T05:24:26;94667.44;;;4.57;79.05
11124;BME280;5616;42.692;23.312;2023-02-04T05:26:53;94683.25;;;4.52;79.72
11124;BME280;5616;42.692;23.312;2023-02-04T05:29:21;94697.09;;;4.42;80.57
11124;BME280;5616;42.692;23.312;2023-02-04T05:31:48;94690.06;;;4.44;81.29
11124;BME280;5616;42.692;23.312;2023-02-04T05:34:16;94696.81;;;4.45;80.43
11124;BME280;5616;42.692;23.312;2023-02-04T05:36:43;94693.09;;;4.39;80.18
11124;BME280;5616;42.692;23.312;2023-02-04T05:39:09;94701.97;;;4.27;81.57
11124;BME280;5616;42.692;23.312;2023-02-04T05:41:36;94697.34;;;4.30;80.38
11124;BME280;5616;42.692;23.312;2023-02-04T05:44:04;94692.56;;;4.27;79.40
11124;BME280;5616;42.692;23.312;2023-02-04T05:46:31;94693.88;;;4.31;79.51
11124;BME280;5616;42.692;23.312;2023-02-04T05:48:58;94703.13;;;4.32;79.43
11124;BME280;5616;42.692;23.312;2023-02-04T05:51:26;94698.25;;;4.21;80.29
11124;BME280;5616;42.692;23.312;2023-02-04T05:53:53;94688.63;;;4.07;80.88
11124;BME280;5616;42.692;23.312;2023-02-04T05:56:20;94682.19;;;3.78;80.03
11124;BME280;5616;42.692;23.312;2023-02-04T05:58:46;94674.06;;;3.82;80.89
11124;BME280;5616;42.692;23.312;2023-02-04T06:01:13;94673.25;;;3.74;80.35
11124;BME280;5616;42.692;23.312;2023-02-04T06:03:40;94677.84;;;3.70;80.17
11124;BME280;5616;42.692;23.312;2023-02-04T06:06:07;94675.22;;;3.62;80.03
11124;BME280;5616;42.692;23.312;2023-02-04T06:08:35;94676.94;;;3.79;78.60
11124;BME280;5616;42.692;23.312;2023-02-04T06:11:02;94678.06;;;3.77;78.60
11124;BME280;5616;42.692;23.312;2023-02-04T06:13:29;94686.34;;;3.79;78.82
11124;BME280;5616;42.692;23.312;2023-02-04T06:15:55;94705.59;;;3.91;78.27
11124;BME280;5616;42.692;23.312;2023-02-04T06:18:22;94696.78;;;4.11;77.41
11124;BME280;5616;42.692;23.312;2023-02-04T06:20:49;94709.97;;;4.24;76.89
11124;BME280;5616;42.692;23.312;2023-02-04T06:23:16;94702.59;;;4.21;75.97
11124;BME280;5616;42.692;23.312;2023-02-04T06:25:44;94698.47;;;4.28;76.57
11124;BME280;5616;42.692;23.312;2023-02-04T06:28:13;94707.28;;;4.33;76.35
11124;BME280;5616;42.692;23.312;2023-02-04T06:30:39;94702.38;;;4.48;75.53
11124;BME280;5616;42.692;23.312;2023-02-04T06:33:08;94704.34;;;4.54;75.38
11124;BME280;5616;42.692;23.312;2023-02-04T06:35:35;94719.13;;;4.68;73.88
11124;BME280;5616;42.692;23.312;2023-02-04T06:38:02;94701.84;;;4.70;72.84
11124;BME280;5616;42.692;23.312;2023-02-04T06:40:29;94713.53;;;4.73;73.40
11124;BME280;5616;42.692;23.312;2023-02-04T06:42:57;94719.75;;;4.70;73.50
11124;BME280;5616;42.692;23.312;2023-02-04T06:45:23;94716.22;;;4.63;73.02
11124;BME280;5616;42.692;23.312;2023-02-04T06:47:50;94712.75;;;4.80;72.30
11124;BME280;5616;42.692;23.312;2023-02-04T06:50:17;94706.56;;;4.91;71.90
11124;BME280;5616;42.692;23.312;2023-02-04T06:52:44;94715.72;;;5.10;70.66
11124;BME280;5616;42.692;23.312;2023-02-04T06:55:11;94702.31;;;5.16;70.65
11124;BME280;5616;42.692;23.312;2023-02-04T06:57:39;94708.41;;;5.23;70.13
11124;BME280;5616;42.692;23.312;2023-02-04T07:00:09;94702.16;;;5.17;69.20
11124;BME280;5616;42.692;23.312;2023-02-04T07:02:36;94694.81;;;5.30;69.03
11124;BME280;5616;42.692;23.312;2023-02-04T07:05:04;94698.50;;;5.44;68.98
11124;BME280;5616;42.692;23.312;2023-02-04T07:07:31;94689.22;;;5.43;68.33
11124;BME280;5616;42.692;23.312;2023-02-04T07:09:58;94692.09;;;5.24;69.25
11124;BME280;5616;42.692;23.312;2023-02-04T07:12:25;94685.06;;;5.26;68.59
11124;BME280;5616;42.692;23.312;2023-02-04T07:14:52;94688.97;;;4.88;69.72
11124;BME280;5616;42.692;23.312;2023-02-04T07:17:21;94684.91;;;4.69;71.06
11124;BME280;5616;42.692;23.312;2023-02-04T07:19:48;94695.06;;;4.95;70.51
11124;BME280;5616;42.692;23.312;2023-02-04T07:22:14;94681.19;;;5.06;70.23
11124;BME280;5616;42.692;23.312;2023-02-04T07:24:41;94680.41;;;5.21;69.96
11124;BME280;5616;42.692;23.312;2023-02-04T07:27:08;94671.63;;;5.24;69.68
11124;BME280;5616;42.692;23.312;2023-02-04T07:29:35;94672.25;;;5.18;70.20
11124;BME280;5616;42.692;23.312;2023-02-04T07:32:02;94666.97;;;5.27;70.17
11124;BME280;5616;42.692;23.312;2023-02-04T07:34:30;94667.16;;;5.50;68.73
11124;BME280;5616;42.692;23.312;2023-02-04T07:36:57;94677.41;;;5.58;68.69
11124;BME280;5616;42.692;23.312;2023-02-04T07:39:23;94671.47;;;5.57;67.98
11124;BME280;5616;42.692;23.312;2023-02-04T07:41:50;94662.66;;;5.76;67.64
11124;BME280;5616;42.692;23.312;2023-02-04T07:44:22;94673.06;;;5.91;66.32
11124;BME280;5616;42.692;23.312;2023-02-04T07:46:48;94671.63;;;5.88;66.06
11124;BME280;5616;42.692;23.312;2023-02-04T07:49:15;94673.22;;;6.05;65.79
11124;BME280;5616;42.692;23.312;2023-02-04T07:51:43;94677.88;;;5.94;66.58
11124;BME280;5616;42.692;23.312;2023-02-04T07:54:10;94668.81;;;6.30;65.67
11124;BME280;5616;42.692;23.312;2023-02-04T07:56:37;94658.47;;;6.15;66.33
11124;BME280;5616;42.692;23.312;2023-02-04T07:59:04;94677.59;;;6.44;65.00
11124;BME280;5616;42.692;23.312;2023-02-04T08:01:30;94669.44;;;6.32;64.75
11124;BME280;5616;42.692;23.312;2023-02-04T08:03:58;94679.75;;;6.24;66.12
11124;BME280;5616;42.692;23.312;2023-02-04T08:06:25;94681.31;;;6.33;65.17
11124;BME280;5616;42.692;23.312;2023-02-04T08:08:53;94675.81;;;5.97;66.23
11124;BME280;5616;42.692;23.312;2023-02-04T08:11:20;94668.81;;;6.30;65.49
11124;BME280;5616;42.692;23.312;2023-02-04T08:13:47;94675.22;;;6.42;64.98
11124;BME280;5616;42.692;23.312;2023-02-04T08:16:13;94676.97;;;6.42;65.33
11124;BME280;5616;42.692;23.312;2023-02-04T08:18:40;94679.53;;;6.42;64.35
11124;BME280;5616;42.692;23.312;2023-02-04T08:21:07;94674.75;;;6.39;64.39
11124;BME280;5616;42.692;23.312;2023-02-04T08:23:34;94685.47;;;6.42;65.12
11124;BME280;5616;42.692;23.312;2023-02-04T08:26:07;94677.84;;;6.10;66.68
11124;BME280;5616;42.692;23.312;2023-02-04T08:28:34;94672.06;;;6.24;66.21
11124;BME280;5616;42.692;23.312;2023-02-04T08:31:01;94674.47;;;6.18;66.00
11124;BME280;5616;42.692;23.312;2023-02-04T08:33:28;94671.41;;;6.22;66.51
11124;BME280;5616;42.692;23.312;2023-02-04T08:35:55;94665.13;;;6.33;65.94
11124;BME280;5616;42.692;23.312;2023-02-04T08:38:21;94666.75;;;6.34;66.94
11124;BME280;5616;42.692;23.312;2023-02-04T08:40:49;94655.72;;;6.17;66.59
11124;BME280;5616;42.692;23.312;2023-02-04T08:43:17;94661.06;;;5.75;67.63
11124;BME280;5616;42.692;23.312;2023-02-04T08:45:43;94660.91;;;5.69;68.70
11124;BME280;5616;42.692;23.312;2023-02-04T08:48:10;94648.56;;;5.80;69.06
11124;BME280;5616;42.692;23.312;2023-02-04T08:50:37;94665.56;;;5.89;69.69
11124;BME280;5616;42.692;23.312;2023-02-04T08:53:04;94664.94;;;5.87;70.06
11124;BME280;5616;42.692;23.312;2023-02-04T08:55:31;94651.78;;;5.66;71.39
11124;BME280;5616;42.692;23.312;2023-02-04T08:57:57;94648.13;;;5.52;72.09
11124;BME280;5616;42.692;23.312;2023-02-04T09:00:27;94651.63;;;5.76;72.10
11124;BME280;5616;42.692;23.312;2023-02-04T09:02:54;94651.13;;;6.04;71.32
11124;BME280;5616;42.692;23.312;2023-02-04T09:05:21;94659.09;;;6.18;69.64
11124;BME280;5616;42.692;23.312;2023-02-04T09:07:48;94644.16;;;6.29;69.93
11124;BME280;5616;42.692;23.312;2023-02-04T09:10:15;94657.13;;;6.36;70.43
11124;BME280;5616;42.692;23.312;2023-02-04T09:12:42;94654.81;;;6.49;70.34
11124;BME280;5616;42.692;23.312;2023-02-04T09:15:09;94650.75;;;6.24;69.04
11124;BME280;5616;42.692;23.312;2023-02-04T09:17:38;94651.06;;;6.29;68.46
11124;BME280;5616;42.692;23.312;2023-02-04T09:20:05;94647.63;;;6.44;67.98
11124;BME280;5616;42.692;23.312;2023-02-04T09:22:32;94643.28;;;6.53;67.53
11124;BME280;5616;42.692;23.312;2023-02-04T09:25:01;94642.75;;;6.65;67.36
11124;BME280;5616;42.692;23.312;2023-02-04T09:27:28;94650.44;;;6.65;66.46
11124;BME280;5616;42.692;23.312;2023-02-04T09:29:55;94650.00;;;6.54;66.58
11124;BME280;5616;42.692;23.312;2023-02-04T09:32:22;94649.16;;;6.23;67.35
11124;BME280;5616;42.692;23.312;2023-02-04T09:34:51;94649.13;;;6.31;69.15
11124;BME280;5616;42.692;23.312;2023-02-04T09:37:18;94654.56;;;6.36;69.67
11124;BME280;5616;42.692;23.312;2023-02-04T09:39:44;94646.22;;;6.42;70.25
11124;BME280;5616;42.692;23.312;2023-02-04T09:42:12;94648.34;;;6.14;71.05
11124;BME280;5616;42.692;23.312;2023-02-04T09:44:40;94658.00;;;6.04;72.89
11124;BME280;5616;42.692;23.312;2023-02-04T09:47:10;94634.47;;;6.00;72.80
11124;BME280;5616;42.692;23.312;2023-02-04T09:49:41;94629.31;;;6.08;73.19
11124;BME280;5616;42.692;23.312;2023-02-04T09:52:13;94625.19;;;5.99;74.23
11124;BME280;5616;42.692;23.312;2023-02-04T09:54:42;94631.44;;;5.97;74.27
11124;BME280;5616;42.692;23.312;2023-02-04T09:57:13;94612.38;;;5.91;75.51
11124;BME280;5616;42.692;23.312;2023-02-04T09:59:41;94628.03;;;6.12;75.91
11124;BME280;5616;42.692;23.312;2023-02-04T10:02:19;94619.59;;;5.88;76.26
11124;BME280;5616;42.692;23.312;2023-02-04T10:04:47;94610.47;;;5.85;76.70
11124;BME280;5616;42.692;23.312;2023-02-04T10:07:18;94611.28;;;5.86;76.25
11124;BME280;5616;42.692;23.312;2023-02-04T10:09:48;94605.47;;;6.08;75.53
11124;BME280;5616;42.692;23.312;2023-02-04T10:12:15;94591.69;;;6.01;76.58
11124;BME280;5616;42.692;23.312;2023-02-04T10:14:43;94600.53;;;5.74;75.95
11124;BME280;5616;42.692;23.312;2023-02-04T10:17:11;94607.25;;;5.83;75.60
11124;BME280;5616;42.692;23.312;2023-02-04T10:19:41;94595.09;;;5.77;75.02
11124;BME280;5616;42.692;23.312;2023-02-04T10:22:14;94592.81;;;6.06;74.24
11124;BME280;5616;42.692;23.312;2023-02-04T10:24:43;94588.75;;;6.20;74.31
11124;BME280;5616;42.692;23.312;2023-02-04T10:27:11;94580.88;;;6.22;73.29
11124;BME280;5616;42.692;23.312;2023-02-04T10:29:41;94590.44;;;6.36;73.49
11124;BME280;5616;42.692;23.312;2023-02-04T10:32:26;94590.59;;;5.95;74.65
11124;BME280;5616;42.692;23.312;2023-02-04T10:34:58;94585.81;;;5.76;75.70
11124;BME280;5616;42.692;23.312;2023-02-04T10:37:25;94584.41;;;5.41;77.37
11124;BME280;5616;42.692;23.312;2023-02-04T10:39:53;94586.63;;;5.69;78.44
11124;BME280;5616;42.692;23.312;2023-02-04T10:42:22;94592.91;;;5.58;79.33
11124;BME280;5616;42.692;23.312;2023-02-04T10:44:49;94571.25;;;5.77;79.00
11124;BME280;5616;42.692;23.312;2023-02-04T10:47:18;94586.13;;;5.97;79.58
11124;BME280;5616;42.692;23.312;2023-02-04T10:49:54;94578.56;;;6.04;79.82
11124;BME280;5616;42.692;23.312;2023-02-04T10:52:23;94579.50;;;6.11;79.96
11124;BME280;5616;42.692;23.312;2023-02-04T10:54:53;94575.53;;;6.00;79.68
11124;BME280;5616;42.692;23.312;2023-02-04T10:57:22;94582.00;;;6.19;78.40
11124;BME280;5616;42.692;23.312;2023-02-04T10:59:51;94574.16;;;6.29;78.64
11124;BME280;5616;42.692;23.312;2023-02-04T11:02:42;94556.00;;;5.99;79.01
11124;BME280;5616;42.692;23.312;2023-02-04T11:05:13;94573.41;;;6.12;78.56
11124;BME280;5616;42.692;23.312;2023-02-04T11:07:40;94569.06;;;6.21;77.80
11124;BME280;5616;42.692;23.312;2023-02-04T11:10:13;94563.31;;;6.19;79.81
11124;BME280;5616;42.692;23.312;2023-02-04T11:12:42;94557.19;;;6.20;78.43
11124;BME280;5616;42.692;23.312;2023-02-04T11:15:38;94549.13;;;6.31;78.53
11124;BME280;5616;42.692;23.312;2023-02-04T11:18:07;94548.72;;;6.50;77.36
11124;BME280;5616;42.692;23.312;2023-02-04T11:20:35;94540.13;;;6.65;77.54
11124;BME280;5616;42.692;23.312;2023-02-04T11:23:31;94547.91;;;6.49;77.37
11124;BME280;5616;42.692;23.312;2023-02-04T11:26:05;94535.94;;;6.42;77.61
11124;BME280;5616;42.692;23.312;2023-02-04T11:28:46;94549.31;;;6.60;75.23
11124;BME280;5616;42.692;23.312;2023-02-04T11:31:26;94549.34;;;6.52;75.52
11124;BME280;5616;42.692;23.312;2023-02-04T11:34:11;94559.41;;;6.23;77.31
11124;BME280;5616;42.692;23.312;2023-02-04T11:37:04;94547.88;;;6.27;77.65
11124;BME280;5616;42.692;23.312;2023-02-04T11:39:36;94552.59;;;6.07;79.32
11124;BME280;5616;42.692;23.312;2023-02-04T11:42:09;94552.69;;;6.22;78.73
11124;BME280;5616;42.692;23.312;2023-02-04T11:44:40;94555.97;;;6.07;78.90
11124;BME280;5616;42.692;23.312;2023-02-04T11:47:07;94557.69;;;6.15;79.01
11124;BME280;5616;42.692;23.312;2023-02-04T11:49:35;94544.97;;;6.30;79.29
11124;BME280;5616;42.692;23.312;2023-02-04T11:52:04;94551.84;;;7.28;82.17
11124;BME280;5616;42.692;23.312;2023-02-04T11:54:33;94552.38;;;7.01;76.41
11124;BME280;5616;42.692;23.312;2023-02-04T11:57:01;94546.41;;;6.86;75.47
11124;BME280;5616;42.692;23.312;2023-02-04T11:59:29;94551.38;;;6.87;75.09
11124;BME280;5616;42.692;23.312;2023-02-04T12:02:03;94554.09;;;6.63;76.94
11124;BME280;5616;42.692;23.312;2023-02-04T12:04:30;94552.16;;;6.65;76.75
11124;BME280;5616;42.692;23.312;2023-02-04T12:06:59;94547.03;;;6.65;76.61
11124;BME280;5616;42.692;23.312;2023-02-04T12:09:27;94552.19;;;6.57;76.50
11124;BME280;5616;42.692;23.312;2023-02-04T12:11:57;94548.03;;;6.56;77.13
11124;BME280;5616;42.692;23.312;2023-02-04T12:14:31;94538.44;;;6.19;79.51
11124;BME280;5616;42.692;23.312;2023-02-04T12:16:58;94547.63;;;6.13;80.47
11124;BME280;5616;42.692;23.312;2023-02-04T12:19:25;94546.91;;;6.28;79.77
11124;BME280;5616;42.692;23.312;2023-02-04T12:21:53;94536.66;;;6.28;79.43
11124;BME280;5616;42.692;23.312;2023-02-04T12:24:20;94539.69;;;6.31;79.41
11124;BME280;5616;42.692;23.312;2023-02-04T12:26:47;94547.72;;;6.28;78.86
11124;BME280;5616;42.692;23.312;2023-02-04T12:29:14;94536.31;;;6.31;80.50
11124;BME280;5616;42.692;23.312;2023-02-04T12:31:42;94535.34;;;6.32;81.03
11124;BME280;5616;42.692;23.312;2023-02-04T12:34:10;94539.22;;;6.28;79.59
11124;BME280;5616;42.692;23.312;2023-02-04T12:36:37;94528.50;;;6.24;78.94
11124;BME280;5616;42.692;23.312;2023-02-04T12:39:03;94535.22;;;6.25;80.29
11124;BME280;5616;42.692;23.312;2023-02-04T12:41:30;94533.16;;;6.21;81.22
11124;BME280;5616;42.692;23.312;2023-02-04T12:43:57;94529.00;;;6.20;80.68
11124;BME280;5616;42.692;23.312;2023-02-04T12:46:25;94533.78;;;6.23;80.10
11124;BME280;5616;42.692;23.312;2023-02-04T12:48:54;94525.69;;;6.11;80.32
11124;BME280;5616;42.692;23.312;2023-02-04T12:51:21;94529.03;;;6.11;80.38
11124;BME280;5616;42.692;23.312;2023-02-04T12:53:48;94528.56;;;6.16;78.55
11124;BME280;5616;42.692;23.312;2023-02-04T12:56:15;94534.81;;;6.13;78.16
11124;BME280;5616;42.692;23.312;2023-02-04T12:58:45;94533.19;;;6.12;78.72
11124;BME280;5616;42.692;23.312;2023-02-04T13:01:11;94529.63;;;6.22;77.69
11124;BME280;5616;42.692;23.312;2023-02-04T13:03:38;94521.59;;;6.25;75.94
11124;BME280;5616;42.692;23.312;2023-02-04T13:06:06;94532.03;;;5.76;78.82
11124;BME280;5616;42.692;23.312;2023-02-04T13:08:33;94537.44;;;5.81;78.24
11124;BME280;5616;42.692;23.312;2023-02-04T13:11:00;94532.66;;;5.78;78.02
11124;BME280;5616;42.692;23.312;2023-02-04T13:13:27;94528.31;;;5.95;78.56
11124;BME280;5616;42.692;23.312;2023-02-04T13:15:54;94540.13;;;6.04;78.63